Topeka, KS (66611)

12:24 AM CDT die 25o June, anno 2017 (GMT -0500)
Knollwood | | Change Station

Elev 978 ft 39.02 °N, 95.70 °W | Updated 24 seconds ago

Aequaliter Nubila
Aequaliter Nubila
67.8 °F
Feels Like 67.8 °F
N
2.0
Ventus Variabilis Ventus from Inter Austrum et Zephyrum

Hodie
High -- | Low -- °F
--% Chance of Precip.
Yesterday
High -- | Low -- °F
Precip. -- in
Pressio 30.19 in
Visibilitas 10.0 milia passuum
Clouds Few 6000 ft
Nubes Dispersae 8000 ft
Aequaliter Nubila 11000 ft
Frigus in quo Ros apparet 52 °F
Umor 59%
Rainfall 0.00 in
Snow Depth Not available.
5:58 AM 8:52 PM
New, 2% visible
METAR KFOE 250453Z AUTO 22005KT 10SM FEW060 SCT080 OVC110 20/13 A3022 RMK AO2 RAB28E37 SLP224 P0000 T02000133
Pressio 30.19 in
Visibilitas 10.0 milia passuum
Clouds Few 6000 ft
Nubes Dispersae 8000 ft
Aequaliter Nubila 11000 ft
Frigus in quo Ros apparet 52 °F
Umor 59%
Rainfall 0.00 in
Snow Depth Not available.
5:58 AM 8:52 PM
New, 2% visible
METAR KFOE 250453Z AUTO 22005KT 10SM FEW060 SCT080 OVC110 20/13 A3022 RMK AO2 RAB28E37 SLP224 P0000 T02000133

Get Severe Weather Alerts

Thanks for signing up!

Be on the lookout for a verification email in your inbox.

You'll start receiving the daily forecast at 6 AM.

×

10-Day Weather Forecast

Almanac

Astronomy

Jun. 25, 2017 Rise Set
Actual Time
Civil Twilight
Nautical Twilight
Astronomical Twilight
Moon
Length Of Visible Light
Length of Day
Tomorrow will be .
, % of the Moon is Illuminated

Today's Extremes

State Highs State Lows

Community

WunderPhotos

Category 6

Welcome to Category 6. This is the collective home for Weather Underground's featured writeups by Dr. Jeff Masters (right), Bob Henson (left), Chris Burt, and other regular contributors.

Nearby

Air Quality

  Air Quality AQ Index Pollutant
Not available.

Snow Depth

Station Depth Elevation

Earthquake Activity

City Distance Mag. Time & Date
Minimum magnitude displayed is 2.5.

Coastal Water Temperatures

Locus Calor

Stations

Nearby Weather Stations

Station Location Temp Frigus Venti Frigus in quo Ros apparet Umor Ventus Precip. Elev Renovata Type
                   

Watches & Warnings

There are currently no watches in effect.